createdAt,value
2022-09-23T00:00:50.469Z,8.02
2022-09-23T00:03:17.331Z,7.90
2022-09-23T00:05:44.191Z,7.53
2022-09-23T00:08:11.727Z,7.43
2022-09-23T00:10:39.253Z,8.55
2022-09-23T00:13:06.295Z,8.02
2022-09-23T00:15:37.612Z,8.77
2022-09-23T00:18:04.428Z,8.63
2022-09-23T00:20:32.939Z,9.10
2022-09-23T00:22:59.771Z,8.88
2022-09-23T00:25:27.526Z,9.35
2022-09-23T00:27:54.529Z,9.55
2022-09-23T00:30:21.500Z,9.82
2022-09-23T00:32:48.331Z,9.77
2022-09-23T00:35:15.471Z,9.68
2022-09-23T00:37:42.305Z,9.90
2022-09-23T00:40:09.668Z,10.23
2022-09-23T00:42:36.509Z,10.00
2022-09-23T00:45:03.701Z,9.80
2022-09-23T00:47:54.851Z,9.00
2022-09-23T00:50:27.316Z,9.40
2022-09-23T00:52:55.456Z,9.80
2022-09-23T00:55:25.391Z,9.13
2022-09-23T00:57:54.593Z,9.00
2022-09-23T01:00:21.622Z,9.18
2022-09-23T01:02:48.507Z,9.65
2022-09-23T01:05:15.450Z,9.00
2022-09-23T01:07:42.267Z,8.68
2022-09-23T01:10:09.489Z,8.57
2022-09-23T01:12:46.003Z,8.30
2022-09-23T01:15:18.857Z,7.90
2022-09-23T01:18:09.938Z,8.05
2022-09-23T01:20:59.441Z,8.15
2022-09-23T01:23:43.428Z,7.80
2022-09-23T01:26:41.308Z,7.63
2022-09-23T01:29:14.498Z,7.38
2022-09-23T01:32:07.502Z,7.95
2022-09-23T01:34:36.012Z,7.32
2022-09-23T01:37:45.100Z,7.17
2022-09-23T01:40:16.392Z,7.30
2022-09-23T01:42:45.269Z,6.63
2022-09-23T01:45:15.030Z,7.00
2022-09-23T01:47:54.912Z,6.63
2022-09-23T01:50:46.721Z,6.17
2022-09-23T01:53:18.041Z,6.53
2022-09-23T01:55:48.672Z,6.40
2022-09-23T01:58:16.320Z,6.80
2022-09-23T02:00:48.851Z,6.32
2022-09-23T02:03:17.934Z,6.87
2022-09-23T02:05:50.121Z,6.28
2022-09-23T02:08:47.760Z,6.00
2022-09-23T02:11:15.600Z,5.47
2022-09-23T02:14:10.070Z,6.57
2022-09-23T02:17:02.079Z,5.90
2022-09-23T02:19:32.593Z,5.47
2022-09-23T02:22:09.272Z,5.63
2022-09-23T02:24:37.902Z,5.97
2022-09-23T02:27:23.301Z,5.88
2022-09-23T02:30:13.491Z,5.33
2022-09-23T02:32:46.260Z,5.68
2022-09-23T02:35:18.208Z,6.15
2022-09-23T02:38:04.880Z,5.93
2022-09-23T02:40:38.910Z,5.82
2022-09-23T02:43:10.394Z,5.53
2022-09-23T02:45:39.104Z,5.78
2022-09-23T02:48:14.835Z,5.70
2022-09-23T02:50:41.620Z,5.90
2022-09-23T02:53:08.389Z,5.57
2022-09-23T02:55:35.221Z,6.00
2022-09-23T02:58:02.568Z,5.53
2022-09-23T03:00:36.541Z,5.55
2022-09-23T03:03:29.924Z,6.40
2022-09-23T03:05:59.750Z,5.10
2022-09-23T03:09:03.678Z,6.27
2022-09-23T03:11:31.251Z,4.80
2022-09-23T03:14:17.601Z,5.93
2022-09-23T03:16:56.216Z,5.50
2022-09-23T03:19:25.940Z,5.00
2022-09-23T03:22:08.807Z,5.17
2022-09-23T03:24:36.741Z,5.07
2022-09-23T03:27:13.888Z,5.32
2022-09-23T03:29:53.774Z,5.43
2022-09-23T03:32:22.141Z,5.10
2022-09-23T03:34:50.472Z,5.30
2022-09-23T03:37:24.351Z,5.38
2022-09-23T03:40:04.860Z,5.60
2022-09-23T03:42:31.861Z,5.25
2022-09-23T03:44:58.879Z,5.10
2022-09-23T03:47:26.701Z,5.50
2022-09-23T03:49:53.651Z,5.10
2022-09-23T03:52:22.498Z,5.40
2022-09-23T03:54:49.671Z,5.18
2022-09-23T03:57:16.455Z,5.22
2022-09-23T03:59:43.573Z,4.93
2022-09-23T04:02:11.333Z,4.95
2022-09-23T04:04:40.237Z,4.82
2022-09-23T04:07:07.037Z,4.93
2022-09-23T04:09:33.882Z,5.35
2022-09-23T04:12:00.965Z,4.83
2022-09-23T04:14:27.799Z,4.90
2022-09-23T04:16:54.622Z,4.80
2022-09-23T04:19:21.470Z,4.85
2022-09-23T04:21:48.460Z,5.00
2022-09-23T04:24:15.975Z,4.57
2022-09-23T04:26:43.154Z,5.15
2022-09-23T04:29:11.569Z,4.68
2022-09-23T04:31:38.492Z,4.53
2022-09-23T04:34:05.348Z,4.90
2022-09-23T04:36:32.123Z,4.33
2022-09-23T04:38:58.899Z,4.38
2022-09-23T04:41:25.751Z,4.65
2022-09-23T04:43:52.660Z,4.90
2022-09-23T04:46:19.622Z,4.70
2022-09-23T04:48:46.441Z,4.47
2022-09-23T04:51:15.533Z,5.07
2022-09-23T04:53:43.310Z,4.97
2022-09-23T04:56:15.174Z,4.90
2022-09-23T04:58:42.348Z,4.82
2022-09-23T05:01:11.315Z,4.83
2022-09-23T05:03:38.272Z,5.05
2022-09-23T05:06:05.247Z,4.85
2022-09-23T05:08:32.048Z,4.28
2022-09-23T05:10:59.604Z,4.45
2022-09-23T05:13:26.443Z,4.40
2022-09-23T05:16:00.166Z,4.78
2022-09-23T05:18:36.611Z,4.78
2022-09-23T05:21:03.688Z,4.80
2022-09-23T05:23:30.627Z,4.95
2022-09-23T05:25:59.183Z,4.50
2022-09-23T05:28:35.242Z,4.60
2022-09-23T05:31:09.477Z,4.68
2022-09-23T05:33:36.980Z,4.60
2022-09-23T05:36:04.141Z,5.10
2022-09-23T05:38:31.560Z,5.77
2022-09-23T05:41:05.549Z,6.00
2022-09-23T05:43:32.340Z,6.18
2022-09-23T05:46:07.287Z,6.43
2022-09-23T05:48:35.751Z,6.70
2022-09-23T05:51:02.950Z,6.80
2022-09-23T05:53:30.051Z,6.70
2022-09-23T05:56:01.531Z,6.32
2022-09-23T05:58:28.706Z,6.03
2022-09-23T06:01:00.302Z,4.88
2022-09-23T06:03:27.277Z,4.60
2022-09-23T06:05:54.943Z,4.00
2022-09-23T06:08:22.805Z,3.65
2022-09-23T06:10:53.522Z,3.85
2022-09-23T06:13:21.331Z,3.40
2022-09-23T06:15:48.135Z,3.00
2022-09-23T06:18:15.078Z,2.75
2022-09-23T06:20:41.870Z,3.15
2022-09-23T06:23:10.700Z,2.83
2022-09-23T06:25:38.604Z,2.50
2022-09-23T06:28:07.088Z,2.70
2022-09-23T06:30:34.851Z,2.65
2022-09-23T06:33:02.412Z,2.70
2022-09-23T06:35:29.349Z,2.58
2022-09-23T06:37:56.173Z,2.65
2022-09-23T06:40:23.046Z,2.40
2022-09-23T06:42:57.483Z,2.58
2022-09-23T06:45:24.233Z,2.50
2022-09-23T06:47:57.875Z,2.38
2022-09-23T06:50:25.616Z,2.40
2022-09-23T06:52:56.441Z,2.20
2022-09-23T06:55:24.729Z,2.58
2022-09-23T06:57:51.569Z,2.65
2022-09-23T07:00:18.723Z,2.58
2022-09-23T07:02:45.823Z,2.45
2022-09-23T07:05:12.845Z,2.60
2022-09-23T07:07:39.773Z,2.83
2022-09-23T07:10:07.036Z,2.58
2022-09-23T07:12:34.152Z,2.72
2022-09-23T07:15:00.982Z,2.47
2022-09-23T07:17:27.899Z,2.90
2022-09-23T07:19:58.492Z,2.90
2022-09-23T07:22:26.546Z,3.35
2022-09-23T07:24:56.575Z,4.03
2022-09-23T07:27:26.898Z,3.95
2022-09-23T07:29:53.999Z,4.93
2022-09-23T07:32:22.104Z,3.83
2022-09-23T07:34:49.028Z,3.40
2022-09-23T07:37:16.665Z,3.63
2022-09-23T07:39:43.972Z,3.50
2022-09-23T07:42:12.493Z,4.00
2022-09-23T07:44:39.654Z,4.00
2022-09-23T07:47:06.414Z,3.65
2022-09-23T07:49:34.909Z,3.63
2022-09-23T07:52:03.172Z,3.95
2022-09-23T07:54:30.092Z,4.20
2022-09-23T07:56:57.052Z,4.43
2022-09-23T07:59:24.102Z,4.47
2022-09-23T08:01:52.855Z,3.95
2022-09-23T08:04:23.499Z,3.97
2022-09-23T08:06:54.826Z,4.90
2022-09-23T08:09:23.584Z,4.90
2022-09-23T08:11:50.789Z,3.97
2022-09-23T08:14:18.554Z,3.80
2022-09-23T08:16:45.791Z,4.78
2022-09-23T08:19:12.954Z,4.83
2022-09-23T08:21:41.074Z,3.83
2022-09-23T08:24:15.275Z,4.30
2022-09-23T08:26:42.450Z,4.55
2022-09-23T08:29:12.108Z,4.18
2022-09-23T08:31:38.915Z,3.80
2022-09-23T08:34:06.432Z,3.78
2022-09-23T08:36:33.571Z,3.45
2022-09-23T08:39:00.511Z,3.42
2022-09-23T08:41:46.247Z,3.30
2022-09-23T08:44:38.330Z,3.53
2022-09-23T08:47:16.218Z,3.03
2022-09-23T08:49:48.389Z,3.90
2022-09-23T08:52:20.029Z,3.30
2022-09-23T08:54:46.868Z,3.20
2022-09-23T08:57:57.431Z,2.70
2022-09-23T09:00:36.949Z,3.30
2022-09-23T09:03:07.869Z,2.30
2022-09-23T09:05:34.668Z,2.15
2022-09-23T09:08:02.468Z,2.58
2022-09-23T09:10:33.969Z,2.97
2022-09-23T09:13:06.811Z,2.45
2022-09-23T09:15:37.363Z,2.42
2022-09-23T09:18:19.897Z,2.60
2022-09-23T09:21:01.070Z,1.60
2022-09-23T09:23:44.349Z,2.00
2022-09-23T09:26:17.794Z,1.85
2022-09-23T09:28:51.307Z,2.00
2022-09-23T09:31:22.239Z,1.60
2022-09-23T09:34:00.109Z,1.95
2022-09-23T09:36:47.994Z,1.77
2022-09-23T09:39:15.048Z,2.08
2022-09-23T09:41:52.091Z,1.50
2022-09-23T09:44:37.378Z,1.45
2022-09-23T09:47:28.726Z,1.60
2022-09-23T09:50:19.228Z,1.10
2022-09-23T09:52:46.001Z,1.30
2022-09-23T09:55:12.718Z,1.80
2022-09-23T09:57:46.494Z,1.65
2022-09-23T10:00:42.855Z,1.70
2022-09-23T10:03:13.410Z,1.70
2022-09-23T10:05:46.176Z,1.33
2022-09-23T10:08:19.473Z,1.42
2022-09-23T10:11:06.909Z,1.20
2022-09-23T10:13:33.949Z,1.58
2022-09-23T10:16:04.034Z,1.50
2022-09-23T10:18:49.898Z,1.33
2022-09-23T10:21:17.930Z,1.20
2022-09-23T10:24:06.487Z,1.63
2022-09-23T10:26:37.677Z,2.88
2022-09-23T10:29:31.649Z,4.40
2022-09-23T10:32:26.890Z,5.28
2022-09-23T10:34:58.522Z,11.27
2022-09-23T10:37:32.815Z,10.15
2022-09-23T10:40:18.704Z,7.47
2022-09-23T10:43:19.454Z,8.17
2022-09-23T10:46:08.213Z,8.15
2022-09-23T10:48:38.595Z,6.88
2022-09-23T10:51:10.538Z,4.80
2022-09-23T10:53:49.698Z,5.15
2022-09-23T10:56:36.279Z,4.83
2022-09-23T10:59:50.561Z,3.75
2022-09-23T11:02:58.862Z,3.92
2022-09-23T11:05:56.392Z,3.10
2022-09-23T11:08:49.778Z,5.38
2022-09-23T11:11:39.484Z,7.00
2022-09-23T11:14:17.246Z,9.85
2022-09-23T11:17:06.074Z,10.02
2022-09-23T11:19:58.007Z,7.65
2022-09-23T11:23:08.234Z,7.68
2022-09-23T11:26:12.774Z,9.77
2022-09-23T11:29:16.796Z,10.15
2022-09-23T11:32:34.503Z,6.45
2022-09-23T11:35:13.435Z,5.38
2022-09-23T11:37:56.997Z,4.45
2022-09-23T11:40:30.364Z,3.20
2022-09-23T11:43:07.290Z,4.50
2022-09-23T11:45:40.374Z,4.22
2022-09-23T11:48:14.177Z,4.50
2022-09-23T11:51:21.838Z,4.50
2022-09-23T11:54:11.519Z,3.67
2022-09-23T11:56:47.075Z,3.55
2022-09-23T11:59:26.406Z,2.83
2022-09-23T12:02:46.848Z,6.03
2022-09-23T12:05:22.345Z,6.43
2022-09-23T12:07:56.785Z,6.10
2022-09-23T12:10:48.205Z,4.60
2022-09-23T12:13:20.402Z,5.40
2022-09-23T12:16:30.537Z,6.72
2022-09-23T12:19:04.589Z,3.58
2022-09-23T12:21:50.257Z,2.60
2022-09-23T12:24:33.183Z,3.22
2022-09-23T12:27:01.802Z,5.82
2022-09-23T12:29:30.073Z,4.85
2022-09-23T12:31:56.887Z,3.67
2022-09-23T12:34:40.185Z,3.33
2022-09-23T12:37:07.214Z,3.00
2022-09-23T12:39:35.573Z,3.92
2022-09-23T12:42:04.029Z,3.53
2022-09-23T12:44:39.307Z,4.60
2022-09-23T12:47:15.230Z,5.00
2022-09-23T12:49:42.688Z,5.93
2022-09-23T12:52:18.707Z,3.88
2022-09-23T12:54:51.652Z,3.45
2022-09-23T12:57:36.845Z,3.20
2022-09-23T13:00:15.178Z,2.77
2022-09-23T13:02:43.951Z,2.42
2022-09-23T13:05:35.226Z,3.00
2022-09-23T13:08:22.927Z,4.80
2022-09-23T13:11:11.205Z,6.00
2022-09-23T13:13:42.946Z,5.37
2022-09-23T13:16:57.142Z,5.70
2022-09-23T13:19:26.729Z,6.25
2022-09-23T13:21:53.613Z,3.83
2022-09-23T13:24:23.460Z,4.57
2022-09-23T13:26:51.527Z,8.10
2022-09-23T13:29:29.949Z,8.93
2022-09-23T13:31:57.975Z,7.88
2022-09-23T13:34:26.679Z,5.68
2022-09-23T13:36:53.808Z,8.50
2022-09-23T13:39:24.812Z,7.70
2022-09-23T13:41:56.591Z,5.45
2022-09-23T13:44:23.793Z,6.38
2022-09-23T13:47:00.212Z,5.60
2022-09-23T13:49:28.451Z,4.03
2022-09-23T13:51:56.837Z,15.60
2022-09-23T13:54:32.129Z,15.95
2022-09-23T13:56:59.552Z,19.17
2022-09-23T13:59:28.472Z,15.20
2022-09-23T14:02:13.368Z,12.98
2022-09-23T14:04:40.375Z,9.57
2022-09-23T14:07:07.493Z,9.02
2022-09-23T14:09:35.332Z,6.93
2022-09-23T14:12:02.389Z,5.43
2022-09-23T14:14:29.371Z,4.45
2022-09-23T14:16:56.312Z,4.23
2022-09-23T14:19:23.496Z,4.00
2022-09-23T14:21:51.494Z,3.80
2022-09-23T14:24:19.383Z,3.35
2022-09-23T14:26:51.973Z,2.88
2022-09-23T14:29:20.617Z,3.77
2022-09-23T14:31:57.249Z,3.42
2022-09-23T14:34:44.117Z,2.83
2022-09-23T14:38:00.518Z,2.65
2022-09-23T14:40:53.679Z,2.60
2022-09-23T14:43:24.731Z,2.23
2022-09-23T14:45:54.817Z,2.38
2022-09-23T14:48:23.571Z,2.40
2022-09-23T14:50:55.358Z,2.20
2022-09-23T14:53:24.819Z,2.30
2022-09-23T14:56:16.123Z,2.63
2022-09-23T14:58:58.806Z,2.17
2022-09-23T15:01:32.099Z,2.03
2022-09-23T15:03:59.661Z,1.98
2022-09-23T15:06:26.479Z,2.40
2022-09-23T15:08:53.382Z,2.23
2022-09-23T15:11:22.001Z,2.03
2022-09-23T15:13:52.772Z,2.00
2022-09-23T15:16:25.778Z,2.40
2022-09-23T15:18:57.807Z,2.10
2022-09-23T15:21:25.041Z,2.00
2022-09-23T15:23:53.302Z,2.22
2022-09-23T15:26:25.049Z,2.03
2022-09-23T15:28:54.243Z,2.38
2022-09-23T15:31:23.536Z,2.00
2022-09-23T15:33:50.661Z,2.37
2022-09-23T15:36:25.982Z,2.13
2022-09-23T15:38:53.125Z,2.40
2022-09-23T15:41:20.070Z,2.38
2022-09-23T15:43:47.328Z,2.13
2022-09-23T15:46:18.243Z,2.93
2022-09-23T15:49:12.954Z,2.53
2022-09-23T15:51:40.529Z,2.90
2022-09-23T15:54:12.127Z,2.92
2022-09-23T15:56:38.986Z,3.00
2022-09-23T15:59:06.355Z,2.90
2022-09-23T16:01:36.161Z,3.38
2022-09-23T16:04:06.525Z,3.42
2022-09-23T16:06:36.124Z,3.47
2022-09-23T16:09:03.269Z,3.40
2022-09-23T16:11:31.912Z,3.73
2022-09-23T16:14:00.538Z,3.50
2022-09-23T16:16:31.179Z,3.15
2022-09-23T16:18:58.111Z,3.35
2022-09-23T16:21:25.948Z,3.17
2022-09-23T16:23:53.546Z,3.07
2022-09-23T16:26:28.151Z,3.30
2022-09-23T16:28:55.829Z,3.22
2022-09-23T16:31:25.345Z,3.10
2022-09-23T16:33:53.052Z,3.20
2022-09-23T16:36:23.811Z,2.93
2022-09-23T16:38:50.753Z,3.20
2022-09-23T16:41:17.572Z,2.75
2022-09-23T16:43:44.367Z,3.15
2022-09-23T16:46:12.524Z,3.00
2022-09-23T16:48:40.716Z,2.23
2022-09-23T16:51:08.708Z,2.95
2022-09-23T16:53:36.409Z,2.70
2022-09-23T16:56:09.521Z,3.05
2022-09-23T16:58:40.127Z,2.78
2022-09-23T17:01:26.670Z,2.87
2022-09-23T17:03:53.529Z,2.72
2022-09-23T17:06:20.519Z,2.50
2022-09-23T17:08:51.224Z,2.58
2022-09-23T17:11:18.089Z,2.83
2022-09-23T17:13:45.028Z,2.80
2022-09-23T17:16:22.319Z,2.88
2022-09-23T17:18:49.328Z,4.50
2022-09-23T17:21:16.151Z,5.78
2022-09-23T17:23:43.070Z,6.78
2022-09-23T17:26:10.194Z,8.00
2022-09-23T17:28:37.086Z,8.75
2022-09-23T17:31:04.809Z,15.43
2022-09-23T17:33:32.569Z,17.35
2022-09-23T17:36:02.609Z,16.90
2022-09-23T17:38:29.785Z,16.77
2022-09-23T17:41:01.419Z,17.25
2022-09-23T17:43:31.750Z,17.63
2022-09-23T17:46:06.523Z,16.02
2022-09-23T17:48:37.610Z,15.88
2022-09-23T17:51:06.438Z,15.70
2022-09-23T17:53:35.111Z,15.15
2022-09-23T17:56:06.618Z,14.20
2022-09-23T17:58:35.428Z,13.73
2022-09-23T18:01:02.473Z,13.25
2022-09-23T18:03:30.355Z,13.47
2022-09-23T18:06:16.991Z,12.93
2022-09-23T18:08:45.674Z,12.55
2022-09-23T18:11:26.211Z,11.85
2022-09-23T18:13:56.857Z,11.02
2022-09-23T18:16:44.936Z,10.97
2022-09-23T18:19:13.507Z,10.98
2022-09-23T18:21:42.418Z,9.93
2022-09-23T18:24:31.423Z,10.20
2022-09-23T18:26:59.911Z,9.15
2022-09-23T18:29:27.069Z,9.80
2022-09-23T18:31:54.162Z,9.52
2022-09-23T18:34:21.825Z,9.65
2022-09-23T18:36:48.722Z,8.68
2022-09-23T18:39:15.552Z,8.73
2022-09-23T18:41:42.425Z,8.20
2022-09-23T18:44:09.826Z,8.25
2022-09-23T18:46:36.877Z,7.57
2022-09-23T18:49:22.264Z,8.20
2022-09-23T18:51:55.650Z,8.00
2022-09-23T18:54:27.754Z,8.87
2022-09-23T18:56:54.779Z,7.55
2022-09-23T18:59:24.978Z,7.70
2022-09-23T19:01:52.303Z,7.35
2022-09-23T19:04:20.097Z,7.57
2022-09-23T19:06:47.169Z,7.73
2022-09-23T19:09:15.112Z,7.43
2022-09-23T19:11:42.091Z,6.30
2022-09-23T19:14:11.202Z,7.32
2022-09-23T19:16:38.889Z,7.85
2022-09-23T19:19:05.915Z,7.43
2022-09-23T19:21:33.500Z,7.45
2022-09-23T19:24:03.567Z,7.63
2022-09-23T19:26:32.752Z,7.30
2022-09-23T19:29:00.315Z,7.47
2022-09-23T19:31:29.747Z,7.77
2022-09-23T19:33:58.182Z,7.90
2022-09-23T19:36:32.250Z,7.95
2022-09-23T19:39:04.432Z,8.10
2022-09-23T19:41:32.230Z,8.63
2022-09-23T19:44:02.432Z,8.17
2022-09-23T19:46:31.274Z,8.75
2022-09-23T19:48:58.689Z,8.68
2022-09-23T19:51:28.513Z,9.07
2022-09-23T19:53:55.333Z,9.10
2022-09-23T19:56:22.255Z,9.80
2022-09-23T19:58:52.355Z,9.85
2022-09-23T20:01:19.924Z,10.35
2022-09-23T20:03:47.197Z,9.73
2022-09-23T20:06:14.830Z,11.07
2022-09-23T20:08:41.750Z,11.10
2022-09-23T20:11:13.048Z,10.80
2022-09-23T20:13:40.196Z,10.65
2022-09-23T20:16:11.354Z,11.02
2022-09-23T20:18:38.714Z,10.90
2022-09-23T20:21:06.167Z,11.33
2022-09-23T20:23:33.000Z,10.88
2022-09-23T20:26:19.231Z,10.55
2022-09-23T20:28:46.129Z,10.68
2022-09-23T20:31:13.267Z,10.80
2022-09-23T20:33:43.076Z,10.67
2022-09-23T20:36:15.648Z,10.88
2022-09-23T20:38:42.492Z,10.73
2022-09-23T20:41:09.428Z,10.05
2022-09-23T20:43:36.549Z,9.95
2022-09-23T20:46:04.428Z,9.87
2022-09-23T20:48:31.371Z,10.57
2022-09-23T20:51:04.976Z,10.52
2022-09-23T20:53:32.448Z,10.70
2022-09-23T20:55:59.412Z,10.55
2022-09-23T20:58:30.173Z,10.67
2022-09-23T21:01:04.571Z,9.85
2022-09-23T21:03:32.029Z,9.88
2022-09-23T21:06:03.918Z,10.13
2022-09-23T21:08:31.471Z,11.07
2022-09-23T21:10:58.532Z,10.17
2022-09-23T21:13:25.392Z,10.80
2022-09-23T21:15:52.383Z,10.57
2022-09-23T21:18:22.517Z,10.98
2022-09-23T21:20:56.563Z,10.30
2022-09-23T21:23:30.235Z,9.90
2022-09-23T21:26:04.467Z,9.73
2022-09-23T21:28:32.268Z,10.15
2022-09-23T21:31:03.117Z,9.65
2022-09-23T21:33:31.027Z,10.23
2022-09-23T21:35:58.449Z,10.60
2022-09-23T21:38:25.291Z,10.45
2022-09-23T21:41:02.148Z,9.88
2022-09-23T21:43:32.509Z,10.45
2022-09-23T21:46:02.348Z,9.98
2022-09-23T21:48:33.530Z,9.83
2022-09-23T21:51:01.749Z,11.20
2022-09-23T21:53:29.990Z,10.13
2022-09-23T21:56:20.775Z,10.52
2022-09-23T21:58:48.259Z,10.20
2022-09-23T22:01:17.149Z,10.93
2022-09-23T22:03:45.117Z,10.57
2022-09-23T22:06:21.610Z,10.60
2022-09-23T22:08:50.128Z,10.80
2022-09-23T22:11:36.951Z,10.55
2022-09-23T22:14:05.189Z,10.20
2022-09-23T22:16:32.475Z,10.40
2022-09-23T22:19:00.752Z,10.65
2022-09-23T22:21:29.608Z,10.95
2022-09-23T22:23:57.572Z,9.95
2022-09-23T22:26:24.692Z,10.83
2022-09-23T22:29:09.795Z,10.95
2022-09-23T22:31:55.044Z,9.80
2022-09-23T22:34:48.076Z,10.40
2022-09-23T22:37:10.987Z,10.13
2022-09-23T22:39:37.811Z,10.63
2022-09-23T22:42:05.330Z,10.70
2022-09-23T22:44:32.227Z,9.95
2022-09-23T22:46:59.311Z,9.98
2022-09-23T22:49:26.390Z,9.95
2022-09-23T22:51:53.722Z,9.93
2022-09-23T22:54:23.312Z,10.68
2022-09-23T22:56:50.965Z,9.70
2022-09-23T22:59:17.791Z,9.45
2022-09-23T23:01:44.645Z,9.45
2022-09-23T23:04:13.007Z,9.30
2022-09-23T23:06:39.945Z,8.82
2022-09-23T23:09:08.230Z,9.20
2022-09-23T23:11:35.129Z,9.75
2022-09-23T23:14:02.733Z,10.00
2022-09-23T23:16:32.418Z,9.53
2022-09-23T23:18:59.306Z,8.35
2022-09-23T23:21:26.289Z,9.50
2022-09-23T23:23:53.408Z,9.02
2022-09-23T23:26:22.490Z,8.52
2022-09-23T23:28:50.370Z,8.77
2022-09-23T23:31:18.339Z,9.43
2022-09-23T23:33:45.689Z,8.52
2022-09-23T23:36:14.372Z,8.48
2022-09-23T23:38:42.228Z,8.02
2022-09-23T23:41:17.147Z,8.27
2022-09-23T23:43:49.990Z,8.27
2022-09-23T23:46:16.943Z,8.23
2022-09-23T23:48:48.163Z,7.85
2022-09-23T23:51:15.309Z,8.30
2022-09-23T23:53:42.408Z,7.87
2022-09-23T23:56:13.373Z,7.80
2022-09-23T23:58:40.307Z,7.95
